createdAt,value
2019-01-08T00:00:32.509Z,60.80
2019-01-08T00:05:34.235Z,57.80
2019-01-08T00:10:35.910Z,56.27
2019-01-08T00:15:37.908Z,73.27
2019-01-08T00:20:39.673Z,82.57
2019-01-08T00:25:41.756Z,74.20
2019-01-08T00:30:43.875Z,72.57
2019-01-08T00:35:45.741Z,57.93
2019-01-08T00:40:47.591Z,53.20
2019-01-08T00:45:49.204Z,60.83
2019-01-08T00:50:50.940Z,76.67
2019-01-08T00:55:52.578Z,81.93
2019-01-08T01:00:54.262Z,78.27
2019-01-08T01:05:56.355Z,79.80
2019-01-08T01:10:58.142Z,71.37
2019-01-08T01:16:00.296Z,92.50
2019-01-08T01:21:01.988Z,52.70
2019-01-08T01:26:03.708Z,67.20
2019-01-08T01:31:05.777Z,94.17
2019-01-08T01:36:07.735Z,90.83
2019-01-08T01:41:09.698Z,88.07
2019-01-08T01:46:11.465Z,108.33
2019-01-08T01:51:13.228Z,97.10
2019-01-08T01:56:15.029Z,85.67
2019-01-08T02:01:16.832Z,81.17
2019-01-08T02:06:18.938Z,117.40
2019-01-08T02:11:21.020Z,108.73
2019-01-08T02:16:24.370Z,121.03
2019-01-08T02:21:26.086Z,90.77
2019-01-08T02:26:28.183Z,107.97
2019-01-08T02:31:30.395Z,91.00
2019-01-08T02:36:32.082Z,124.23
2019-01-08T02:41:34.138Z,131.70
2019-01-08T02:46:36.481Z,119.90
2019-01-08T02:51:38.366Z,124.70
2019-01-08T02:56:40.311Z,147.73
2019-01-08T03:01:42.445Z,157.77
2019-01-08T03:06:44.143Z,132.67
2019-01-08T03:11:45.764Z,92.50
2019-01-08T03:16:47.818Z,118.40
2019-01-08T03:21:49.451Z,136.63
2019-01-08T03:26:51.144Z,147.27
2019-01-08T03:31:52.874Z,125.67
2019-01-08T03:36:55.027Z,137.03
2019-01-08T03:41:56.726Z,145.57
2019-01-08T03:46:58.421Z,127.30
2019-01-08T03:52:00.089Z,172.57
2019-01-08T03:57:02.333Z,172.17
2019-01-08T04:02:04.048Z,191.80
2019-01-08T04:07:05.665Z,141.60
2019-01-08T04:12:07.482Z,178.40
2019-01-08T04:17:09.606Z,152.00
2019-01-08T04:22:11.273Z,160.97
2019-01-08T04:27:12.958Z,149.90
2019-01-08T04:32:14.881Z,112.77
2019-01-08T04:37:16.925Z,95.97
2019-01-08T04:42:18.691Z,109.67
2019-01-08T04:47:20.445Z,79.63
2019-01-08T04:52:22.163Z,115.40
2019-01-08T04:57:24.079Z,103.43
2019-01-08T05:02:25.838Z,104.03
2019-01-08T05:07:27.516Z,111.53
2019-01-08T05:12:29.328Z,124.90
2019-01-08T05:17:31.022Z,120.30
2019-01-08T05:22:34.757Z,99.47
2019-01-08T05:27:36.683Z,117.60
2019-01-08T05:32:39.970Z,119.83
2019-01-08T05:37:43.589Z,100.17
2019-01-08T05:42:45.400Z,102.60
2019-01-08T05:47:47.554Z,79.40
2019-01-08T05:52:49.464Z,80.27
2019-01-08T05:57:51.730Z,82.30
2019-01-08T06:02:53.742Z,90.53
2019-01-08T06:07:55.852Z,94.80
2019-01-08T06:12:58.917Z,96.30
2019-01-08T06:18:01.048Z,100.67
2019-01-08T06:23:02.665Z,75.57
2019-01-08T06:28:04.385Z,68.27
2019-01-08T06:33:06.528Z,82.10
2019-01-08T06:38:08.534Z,54.77
2019-01-08T06:43:10.550Z,58.53
2019-01-08T06:48:13.327Z,65.00
2019-01-08T06:53:15.652Z,61.13
2019-01-08T06:58:17.372Z,60.80
2019-01-08T07:03:19.384Z,56.40
2019-01-08T07:08:21.099Z,59.57
2019-01-08T07:13:23.067Z,49.17
2019-01-08T07:18:25.010Z,47.07
2019-01-08T07:23:26.865Z,40.73
2019-01-08T07:28:29.417Z,26.17
2019-01-08T07:33:31.457Z,25.67
2019-01-08T07:38:33.209Z,25.63
2019-01-08T07:43:34.885Z,21.83
2019-01-08T07:48:37.010Z,23.33
2019-01-08T07:53:38.829Z,29.03
2019-01-08T07:58:40.433Z,16.17
2019-01-08T08:03:42.673Z,18.17
2019-01-08T08:08:44.418Z,13.50
2019-01-08T08:13:47.426Z,7.03
2019-01-08T08:18:50.066Z,8.63
2019-01-08T08:23:51.866Z,14.93
2019-01-08T08:28:53.602Z,10.13
2019-01-08T08:33:55.716Z,6.93
2019-01-08T08:38:57.896Z,8.57
2019-01-08T08:43:59.654Z,13.10
2019-01-08T08:49:03.149Z,7.77
2019-01-08T08:54:05.239Z,7.90
2019-01-08T08:59:06.977Z,7.97
2019-01-08T09:04:09.129Z,5.70
2019-01-08T09:09:10.998Z,5.27
2019-01-08T09:14:12.764Z,5.30
2019-01-08T09:19:14.879Z,9.63
2019-01-08T09:24:16.642Z,5.90
2019-01-08T09:29:18.966Z,8.77
2019-01-08T09:34:21.111Z,11.70
2019-01-08T09:39:23.054Z,7.20
2019-01-08T09:44:24.921Z,8.93
2019-01-08T09:49:27.000Z,11.20
2019-01-08T09:54:29.080Z,12.43
2019-01-08T09:59:30.824Z,8.27
2019-01-08T10:04:32.934Z,18.00
2019-01-08T10:09:34.808Z,21.20
2019-01-08T10:14:36.712Z,11.00
2019-01-08T10:19:38.513Z,11.77
2019-01-08T10:24:40.528Z,19.60
2019-01-08T10:29:42.250Z,20.83
2019-01-08T10:34:44.296Z,20.00
2019-01-08T10:39:47.334Z,21.37
2019-01-08T10:44:49.151Z,10.77
2019-01-08T10:49:50.910Z,14.63
2019-01-08T10:54:54.064Z,5.97
2019-01-08T10:59:55.954Z,8.43
2019-01-08T11:04:57.831Z,6.70
2019-01-08T11:09:59.856Z,10.53
2019-01-08T11:15:02.310Z,5.10
2019-01-08T11:20:07.919Z,14.43
2019-01-08T11:25:09.773Z,5.83
2019-01-08T11:30:11.607Z,1.80
2019-01-08T11:35:13.766Z,7.30
2019-01-08T11:40:17.444Z,10.63
2019-01-08T11:45:19.364Z,12.67
2019-01-08T11:50:20.981Z,3.70
2019-01-08T11:55:22.708Z,8.63
2019-01-08T12:00:24.364Z,9.43
2019-01-08T12:05:26.499Z,2.10
2019-01-08T12:10:28.152Z,7.37
2019-01-08T12:15:30.121Z,5.53
2019-01-08T12:20:31.803Z,2.03
2019-01-08T12:25:33.684Z,2.50
2019-01-08T12:30:35.476Z,5.57
2019-01-08T12:35:37.639Z,6.83
2019-01-08T12:40:40.764Z,2.40
2019-01-08T12:45:42.701Z,1.57
2019-01-08T12:50:44.584Z,3.97
2019-01-08T12:55:46.384Z,5.23
2019-01-08T13:00:48.504Z,10.37
2019-01-08T13:05:50.776Z,4.97
2019-01-08T13:10:52.566Z,4.73
2019-01-08T13:15:54.411Z,2.07
2019-01-08T13:20:56.196Z,2.50
2019-01-08T13:25:57.949Z,5.03
2019-01-08T13:30:59.702Z,2.70
2019-01-08T13:36:01.820Z,1.67
2019-01-08T13:41:03.786Z,6.90
2019-01-08T13:46:05.521Z,7.70
2019-01-08T13:51:07.149Z,1.53
2019-01-08T13:56:09.001Z,2.10
2019-01-08T14:01:11.986Z,3.87
2019-01-08T14:06:14.148Z,5.60
2019-01-08T14:11:15.826Z,4.13
2019-01-08T14:16:17.584Z,6.30
2019-01-08T14:21:19.336Z,4.77
2019-01-08T14:26:21.096Z,2.63
2019-01-08T14:31:22.846Z,10.33
2019-01-08T14:36:25.529Z,7.43
2019-01-08T14:41:27.239Z,2.60
2019-01-08T14:46:29.350Z,4.20
2019-01-08T14:51:31.085Z,3.37
2019-01-08T14:56:32.981Z,4.33
2019-01-08T15:01:34.721Z,4.03
2019-01-08T15:06:37.022Z,6.63
2019-01-08T15:11:38.781Z,6.97
2019-01-08T15:16:42.656Z,5.90
2019-01-08T15:21:46.094Z,9.83
2019-01-08T15:26:47.710Z,9.90
2019-01-08T15:31:53.677Z,10.50
2019-01-08T15:36:55.642Z,10.67
2019-01-08T15:41:59.055Z,10.43
2019-01-08T15:47:02.181Z,4.70
2019-01-08T15:52:03.995Z,7.93
2019-01-08T15:57:07.604Z,6.73
2019-01-08T16:02:10.347Z,4.27
2019-01-08T16:07:12.305Z,3.30
2019-01-08T16:12:14.373Z,13.27
2019-01-08T16:17:17.103Z,2.97
2019-01-08T16:22:19.047Z,7.60
2019-01-08T16:27:20.774Z,7.90
2019-01-08T16:32:22.528Z,2.90
2019-01-08T16:37:24.462Z,5.03
2019-01-08T16:42:27.990Z,3.43
2019-01-08T16:47:30.116Z,3.50
2019-01-08T16:52:31.797Z,2.87
2019-01-08T16:57:33.719Z,2.20
2019-01-08T17:02:35.423Z,10.20
2019-01-08T17:07:37.243Z,2.63
2019-01-08T17:12:39.108Z,9.80
2019-01-08T17:17:40.744Z,14.67
2019-01-08T17:22:42.521Z,2.40
2019-01-08T17:27:44.138Z,2.47
2019-01-08T17:32:45.818Z,10.47
2019-01-08T17:37:47.559Z,5.27
2019-01-08T17:42:49.231Z,4.60
2019-01-08T17:47:50.906Z,2.73
2019-01-08T17:52:52.812Z,7.80
2019-01-08T17:58:23.910Z,6.77
2019-01-08T18:03:25.614Z,3.33
2019-01-08T18:08:27.260Z,5.27
2019-01-08T18:13:28.941Z,4.33
2019-01-08T18:18:30.590Z,6.30
2019-01-08T18:23:32.292Z,5.03
2019-01-08T18:28:34.006Z,6.23
2019-01-08T18:33:35.643Z,2.23
2019-01-08T18:38:37.335Z,4.50
2019-01-08T18:43:39.022Z,3.70
2019-01-08T18:48:40.748Z,3.57
2019-01-08T18:53:42.408Z,3.53
2019-01-08T18:58:44.087Z,3.60
2019-01-08T19:03:45.738Z,6.83
2019-01-08T19:09:26.747Z,7.50
2019-01-08T19:14:31.203Z,8.17
2019-01-08T19:19:32.953Z,5.07
2019-01-08T19:24:34.705Z,10.47
2019-01-08T19:29:36.472Z,15.73
2019-01-08T19:34:38.228Z,8.57
2019-01-08T19:39:39.997Z,14.07
2019-01-08T19:44:43.742Z,25.33
2019-01-08T19:49:47.035Z,9.10
2019-01-08T19:54:48.910Z,10.97
2019-01-08T19:59:50.630Z,16.30
2019-01-08T20:04:52.258Z,13.57
2019-01-08T20:09:53.942Z,16.30
2019-01-08T20:14:55.658Z,18.63
2019-01-08T20:19:57.421Z,15.67
2019-01-08T20:24:59.171Z,22.27
2019-01-08T20:30:00.940Z,11.97
2019-01-08T20:35:02.692Z,16.00
2019-01-08T20:40:04.853Z,19.13
2019-01-08T20:45:07.782Z,22.50
2019-01-08T20:50:09.862Z,19.43
2019-01-08T20:55:11.482Z,20.20
2019-01-08T21:00:13.668Z,30.07
2019-01-08T21:05:15.294Z,15.70
2019-01-08T21:10:20.279Z,11.80
2019-01-08T21:15:22.219Z,16.07
2019-01-08T21:20:23.975Z,14.77
2019-01-08T21:25:26.070Z,10.33
2019-01-08T21:30:27.830Z,15.93
2019-01-08T21:35:29.598Z,10.73
2019-01-08T21:40:31.361Z,12.53
2019-01-08T21:45:33.181Z,22.70
2019-01-08T21:50:34.958Z,17.17
2019-01-08T21:55:36.764Z,22.03
2019-01-08T22:00:38.512Z,10.97
2019-01-08T22:05:40.288Z,13.10
2019-01-08T22:10:42.015Z,12.10
2019-01-08T22:15:43.800Z,16.93
2019-01-08T22:20:45.584Z,12.20
2019-01-08T22:25:47.339Z,8.70
2019-01-08T22:30:49.126Z,7.90
2019-01-08T22:35:52.848Z,13.03
2019-01-08T22:40:54.574Z,13.23
2019-01-08T22:45:57.712Z,13.60
2019-01-08T22:50:59.826Z,14.63
2019-01-08T22:56:02.093Z,14.77
2019-01-08T23:01:05.930Z,5.97
2019-01-08T23:06:07.915Z,10.93
2019-01-08T23:11:09.687Z,11.73
2019-01-08T23:16:11.467Z,10.43
2019-01-08T23:21:13.226Z,9.43
2019-01-08T23:26:15.001Z,13.60
2019-01-08T23:31:16.755Z,7.53
2019-01-08T23:36:18.495Z,12.87
2019-01-08T23:41:20.261Z,17.27
2019-01-08T23:46:26.150Z,18.03
2019-01-08T23:51:27.939Z,8.90
2019-01-08T23:56:29.888Z,7.03
